createdAt,value
2023-04-22T06:21:55.136Z,8.88
2023-04-22T06:26:59.454Z,10.37
2023-04-22T06:32:05.229Z,8.57
2023-04-22T06:37:09.787Z,7.50
2023-04-22T06:42:15.119Z,7.07
2023-04-22T06:47:43.438Z,5.82
2023-04-22T06:52:51.854Z,7.40
2023-04-22T06:57:54.282Z,7.53
2023-04-22T07:02:56.998Z,7.67
2023-04-22T07:08:04.634Z,6.75
2023-04-22T07:13:11.319Z,6.38
2023-04-22T07:18:13.847Z,7.23
2023-04-22T07:23:17.980Z,6.50
2023-04-22T07:28:20.487Z,5.45
2023-04-22T07:33:23.300Z,5.10
2023-04-22T07:38:27.265Z,5.05
2023-04-22T07:43:29.744Z,5.07
2023-04-22T07:48:35.353Z,3.93
2023-04-22T07:53:39.287Z,4.93
2023-04-22T07:58:41.780Z,4.40
2023-04-22T08:03:44.335Z,3.60
2023-04-22T08:08:48.603Z,4.00
2023-04-22T08:13:51.440Z,4.00
2023-04-22T08:18:53.904Z,4.17
2023-04-22T08:23:57.802Z,4.80
2023-04-22T08:29:02.417Z,4.23
2023-04-22T08:34:05.465Z,4.10
2023-04-22T08:39:10.493Z,3.60
2023-04-22T08:44:14.580Z,4.23
2023-04-22T08:49:18.115Z,4.13
2023-04-22T08:54:23.885Z,4.65
2023-04-22T08:59:27.102Z,3.80
2023-04-22T09:04:29.835Z,4.23
2023-04-22T09:09:34.405Z,4.22
2023-04-22T09:14:38.616Z,3.45
2023-04-22T09:19:41.660Z,4.67
2023-04-22T09:24:50.341Z,3.30
2023-04-22T09:29:53.009Z,3.75
2023-04-22T09:34:55.669Z,2.20
2023-04-22T09:40:05.381Z,2.22
2023-04-22T09:45:09.092Z,2.42
2023-04-22T09:50:12.451Z,3.27
2023-04-22T09:55:16.219Z,2.20
2023-04-22T10:00:22.722Z,3.28
2023-04-22T10:05:25.225Z,2.33
2023-04-22T10:10:32.250Z,2.60
2023-04-22T10:15:40.652Z,1.98
2023-04-22T10:20:45.835Z,1.77
2023-04-22T10:25:54.592Z,1.73
2023-04-22T10:30:57.294Z,2.00
2023-04-22T10:36:15.954Z,2.63
2023-04-22T10:41:24.274Z,2.03
2023-04-22T10:47:00.998Z,2.00
2023-04-22T10:52:06.934Z,2.45
2023-04-22T10:57:17.199Z,2.43
2023-04-22T11:02:21.726Z,1.70
2023-04-22T11:07:31.536Z,1.30
2023-04-22T11:12:45.476Z,1.63
2023-04-22T11:17:51.054Z,1.67
2023-04-22T11:22:55.594Z,1.50
2023-04-22T11:28:00.002Z,1.65
2023-04-22T11:33:02.535Z,1.30
2023-04-22T11:38:07.847Z,1.98
2023-04-22T11:43:12.114Z,2.80
2023-04-22T11:48:15.501Z,2.27
2023-04-22T11:53:20.873Z,1.93
2023-04-22T11:58:27.885Z,2.40
2023-04-22T12:03:31.283Z,2.20
2023-04-22T12:08:37.253Z,1.70
2023-04-22T12:13:44.603Z,2.13
2023-04-22T12:18:51.822Z,2.08
2023-04-22T12:23:57.602Z,1.73
2023-04-22T12:29:01.533Z,2.05
2023-04-22T12:34:04.008Z,2.08
2023-04-22T12:39:09.411Z,1.97
2023-04-22T12:44:13.138Z,1.60
2023-04-22T12:49:15.676Z,1.70
2023-04-22T12:54:18.971Z,1.15
2023-04-22T12:59:22.729Z,1.47
2023-04-22T13:04:28.317Z,1.58
2023-04-22T13:09:30.848Z,1.75
2023-04-22T13:14:35.121Z,2.10
2023-04-22T13:19:37.734Z,2.65
2023-04-22T13:24:40.381Z,2.30
2023-04-22T13:29:45.330Z,2.03
2023-04-22T13:34:47.909Z,2.20
2023-04-22T13:39:50.657Z,2.47
2023-04-22T13:44:54.564Z,1.73
2023-04-22T13:49:57.088Z,2.10
2023-04-22T13:54:59.588Z,1.80
2023-04-22T14:00:03.973Z,1.65
2023-04-22T14:05:14.179Z,1.90
2023-04-22T14:10:16.646Z,1.42
2023-04-22T14:15:20.697Z,1.95
2023-04-22T14:20:26.208Z,2.10
2023-04-22T14:25:28.669Z,2.03
2023-04-22T14:30:33.350Z,1.83
2023-04-22T14:35:36.356Z,2.08
2023-04-22T14:40:38.956Z,1.90
2023-04-22T14:45:46.874Z,1.90
2023-04-22T14:50:49.469Z,1.75
2023-04-22T14:55:51.889Z,2.67
2023-04-22T15:00:55.683Z,2.47
2023-04-22T15:06:01.412Z,3.03
2023-04-22T15:11:03.831Z,2.43
2023-04-22T15:16:07.731Z,4.67
2023-04-22T15:21:10.245Z,2.55
2023-04-22T15:26:13.225Z,2.90
2023-04-22T15:31:17.597Z,2.90
2023-04-22T15:36:20.105Z,2.40
2023-04-22T15:41:23.081Z,2.00
2023-04-22T15:46:30.081Z,2.50
2023-04-22T15:51:32.646Z,2.05
2023-04-22T15:56:36.162Z,2.58
2023-04-22T16:01:40.811Z,2.43
2023-04-22T16:06:43.387Z,2.87
2023-04-22T16:11:45.820Z,4.35
2023-04-22T16:16:50.215Z,3.00
2023-04-22T16:21:52.794Z,3.10
2023-04-22T16:26:55.431Z,2.20
2023-04-22T16:31:59.456Z,2.90
2023-04-22T16:37:01.843Z,4.00
2023-04-22T16:42:04.508Z,2.80
2023-04-22T16:47:08.357Z,2.15
2023-04-22T16:52:10.877Z,2.70
2023-04-22T16:57:13.324Z,1.93
2023-04-22T17:02:17.424Z,1.88
2023-04-22T17:07:19.872Z,1.90
2023-04-22T17:12:22.898Z,2.00
2023-04-22T17:17:26.799Z,2.65
2023-04-22T17:22:29.439Z,2.20
2023-04-22T17:27:32.049Z,2.33
2023-04-22T17:32:36.090Z,2.38
2023-04-22T17:37:38.550Z,2.53
2023-04-22T17:42:45.592Z,2.60
2023-04-22T17:47:50.262Z,2.23
2023-04-22T17:52:55.530Z,2.47
2023-04-22T17:57:57.923Z,2.22
2023-04-22T18:03:02.215Z,2.47
2023-04-22T18:08:04.760Z,3.60
2023-04-22T18:13:07.324Z,4.13
2023-04-22T18:18:11.096Z,5.00
2023-04-22T18:23:13.676Z,5.78
2023-04-22T18:28:18.994Z,8.43
2023-04-22T18:33:22.802Z,7.57
2023-04-22T18:38:25.201Z,9.00
2023-04-22T18:43:27.596Z,12.02
2023-04-22T18:48:31.354Z,15.30
2023-04-22T18:53:36.822Z,14.13
2023-04-22T18:58:39.227Z,10.02
2023-04-22T19:03:43.396Z,7.82
2023-04-22T19:08:45.881Z,8.90
2023-04-22T19:13:48.440Z,10.73
2023-04-22T19:18:55.470Z,18.33
2023-04-22T19:23:57.965Z,24.50
2023-04-22T19:29:03.481Z,29.53
2023-04-22T19:34:07.341Z,25.30
2023-04-22T19:39:09.770Z,19.77
2023-04-22T19:44:12.574Z,15.67
2023-04-22T19:49:17.522Z,16.45
2023-04-22T19:54:21.959Z,15.82
2023-04-22T19:59:24.653Z,17.73
2023-04-22T20:04:32.324Z,14.73
2023-04-22T20:09:36.016Z,14.18
2023-04-22T20:14:38.796Z,13.97
2023-04-22T20:19:43.259Z,14.80
2023-04-22T20:24:47.572Z,13.30
2023-04-22T20:29:51.464Z,12.35
2023-04-22T20:34:57.720Z,11.70
2023-04-22T20:40:01.356Z,11.02
2023-04-22T20:45:05.608Z,10.50
2023-04-22T20:50:10.990Z,11.40
2023-04-22T20:55:13.515Z,10.30
2023-04-22T21:00:19.039Z,9.23
2023-04-22T21:05:26.210Z,8.80
2023-04-22T21:10:29.773Z,9.50
2023-04-22T21:15:33.262Z,9.75
2023-04-22T21:20:44.879Z,11.02
2023-04-22T21:25:48.268Z,10.67
2023-04-22T21:30:51.510Z,11.30
2023-04-22T21:35:56.483Z,10.15
2023-04-22T21:41:01.958Z,10.50
2023-04-22T21:46:07.615Z,11.20
2023-04-22T21:51:11.553Z,12.77
2023-04-22T21:56:14.232Z,12.93
2023-04-22T22:01:16.675Z,12.15
2023-04-22T22:06:20.823Z,13.25
2023-04-22T22:11:31.050Z,12.97
2023-04-22T22:16:33.987Z,14.43
2023-04-22T22:21:37.792Z,15.10
2023-04-22T22:26:40.398Z,13.70
2023-04-22T22:31:43.084Z,14.02
2023-04-22T22:36:46.924Z,15.23
2023-04-22T22:41:49.360Z,16.03
2023-04-22T22:46:51.716Z,17.08
2023-04-22T22:51:58.313Z,17.47
2023-04-22T22:57:00.858Z,16.13
2023-04-22T23:02:03.938Z,17.35
2023-04-22T23:07:07.900Z,14.93
2023-04-22T23:12:10.256Z,13.10
2023-04-22T23:17:13.015Z,14.25
2023-04-22T23:22:17.103Z,14.47
2023-04-22T23:27:23.057Z,16.00
2023-04-22T23:32:27.138Z,17.58
2023-04-22T23:37:31.883Z,18.23
2023-04-22T23:42:34.378Z,18.47
2023-04-22T23:47:37.000Z,18.42
2023-04-22T23:52:41.477Z,16.43
2023-04-22T23:57:44.882Z,16.63
